Time;durP1;ratioP1;P1;durP2;ratioP2;P2;SDS_P1;SDS_P2;PMS_P1;PMS_P2;Temp;Humidity;BMP_temperature;BMP_pressure;BME280_temperature;BME280_humidity;BME280_pressure;Samples;Min_cycle;Max_cycle;Signal;HPM_P1;HPM_P2
2022/10/23 00:01:21;;;;;;;4.10;2.60;;;;;;;;;;4912145;28;20052;-69
2022/10/23 00:03:51;;;;;;;2.50;2.30;;;;;;;;;;4913094;29;20048;-69
2022/10/23 00:06:17;;;;;;;3.50;2.40;;;;;;;;;;4913200;29;20040;-70
2022/10/23 00:08:42;;;;;;;4.22;2.25;;;;;;;;;;4912340;28;20404;-69
2022/10/23 00:11:10;;;;;;;2.50;2.30;;;;;;;;;;4912148;29;20044;-69
2022/10/23 00:13:37;;;;;;;5.35;2.35;;;;;;;;;;4912841;28;20412;-68
2022/10/23 00:16:03;;;;;;;2.97;2.22;;;;;;;;;;4912834;29;20075;-69
2022/10/23 00:18:29;;;;;;;2.53;2.33;;;;;;;;;;4912919;29;20572;-69
2022/10/23 00:20:55;;;;;;;7.25;2.28;;;;;;;;;;4917069;28;20036;-69
2022/10/23 00:23:20;;;;;;;4.82;1.77;;;;;;;;;;4912853;29;20528;-69
2022/10/23 00:25:46;;;;;;;5.45;2.40;;;;;;;;;;4914123;28;20176;-69
2022/10/23 00:28:11;;;;;;;10.10;1.95;;;;;;;;;;4916352;29;20397;-69
2022/10/23 00:30:36;;;;;;;3.33;2.65;;;;;;;;;;4914010;29;20048;-69
2022/10/23 00:33:02;;;;;;;5.43;2.30;;;;;;;;;;4915345;28;20040;-71
2022/10/23 00:35:27;;;;;;;2.58;2.10;;;;;;;;;;4915105;29;20099;-69
2022/10/23 00:37:53;;;;;;;3.15;2.50;;;;;;;;;;4914993;29;20044;-69
2022/10/23 00:40:19;;;;;;;5.00;2.50;;;;;;;;;;4914670;29;20055;-70
2022/10/23 00:42:44;;;;;;;4.30;2.60;;;;;;;;;;4915442;29;20107;-69
2022/10/23 00:45:32;;;;;;;5.38;2.60;;;;;;;;;;4914136;29;20063;-70
2022/10/23 00:47:59;;;;;;;5.55;2.67;;;;;;;;;;4916103;29;20127;-69
2022/10/23 00:50:26;;;;;;;5.18;2.28;;;;;;;;;;4915882;28;20275;-69
2022/10/23 00:52:54;;;;;;;2.30;2.10;;;;;;;;;;4914704;29;20497;-73
2022/10/23 00:55:21;;;;;;;4.90;2.53;;;;;;;;;;4908011;28;20096;-70
2022/10/23 00:57:48;;;;;;;3.13;2.53;;;;;;;;;;4914671;29;20044;-70
2022/10/23 01:00:25;;;;;;;3.80;2.65;;;;;;;;;;4914130;29;20051;-69
2022/10/23 01:02:52;;;;;;;2.65;2.45;;;;;;;;;;4915298;28;20196;-71
2022/10/23 01:05:21;;;;;;;3.80;2.50;;;;;;;;;;4929577;29;20036;-69
2022/10/23 01:07:52;;;;;;;5.05;2.45;;;;;;;;;;4915455;28;20056;-70
2022/10/23 01:10:51;;;;;;;4.55;2.20;;;;;;;;;;4914215;29;20579;-69
2022/10/23 01:13:19;;;;;;;4.80;2.53;;;;;;;;;;4913214;29;20072;-70
2022/10/23 01:15:55;;;;;;;2.88;2.47;;;;;;;;;;4912408;29;20048;-70
2022/10/23 01:18:46;;;;;;;2.45;2.25;;;;;;;;;;4910649;29;20070;-69
2022/10/23 01:21:24;;;;;;;3.22;2.53;;;;;;;;;;4911376;29;20621;-69
2022/10/23 01:24:02;;;;;;;2.75;2.40;;;;;;;;;;4908449;29;20068;-69
2022/10/23 01:26:48;;;;;;;2.40;2.20;;;;;;;;;;4912043;29;20044;-69
2022/10/23 01:29:24;;;;;;;2.40;2.15;;;;;;;;;;4929124;29;20219;-70
2022/10/23 01:32:10;;;;;;;5.13;2.50;;;;;;;;;;4924277;28;20123;-69
2022/10/23 01:34:55;;;;;;;2.35;2.15;;;;;;;;;;4913582;29;20056;-69
2022/10/23 01:37:31;;;;;;;5.28;2.70;;;;;;;;;;4895372;29;20557;-69
2022/10/23 01:40:04;;;;;;;3.03;2.22;;;;;;;;;;4913675;29;20048;-70
2022/10/23 01:42:37;;;;;;;5.07;2.10;;;;;;;;;;4913037;29;20074;-69
2022/10/23 01:45:08;;;;;;;2.33;2.00;;;;;;;;;;4913038;29;20565;-69
2022/10/23 01:47:41;;;;;;;2.45;2.25;;;;;;;;;;4921932;28;20139;-70
2022/10/23 01:50:11;;;;;;;4.25;2.60;;;;;;;;;;4928805;29;20111;-69
2022/10/23 01:52:41;;;;;;;2.65;2.45;;;;;;;;;;4929138;29;20044;-70
2022/10/23 01:55:09;;;;;;;3.08;2.50;;;;;;;;;;4912104;29;20051;-70
2022/10/23 01:57:38;;;;;;;2.35;2.10;;;;;;;;;;4910746;29;20052;-70
2022/10/23 02:00:10;;;;;;;5.65;2.25;;;;;;;;;;4911112;29;20048;-70
2022/10/23 02:02:50;;;;;;;2.38;2.13;;;;;;;;;;4912639;29;20044;-70
2022/10/23 02:05:27;;;;;;;6.15;2.53;;;;;;;;;;4911471;28;20107;-70
2022/10/23 02:07:55;;;;;;;2.30;2.10;;;;;;;;;;4912996;29;20127;-70
2022/10/23 02:10:24;;;;;;;3.08;2.15;;;;;;;;;;4917354;29;20048;-70
2022/10/23 02:13:14;;;;;;;2.75;2.10;;;;;;;;;;4928722;28;20103;-70
2022/10/23 02:16:15;;;;;;;2.30;2.10;;;;;;;;;;4925929;29;20048;-70
2022/10/23 02:18:54;;;;;;;4.18;2.20;;;;;;;;;;4903909;29;20048;-68
2022/10/23 02:21:29;;;;;;;2.97;2.22;;;;;;;;;;4911943;29;20579;-67
2022/10/23 02:24:01;;;;;;;2.40;2.13;;;;;;;;;;4914533;28;20115;-68
2022/10/23 02:26:36;;;;;;;2.47;2.28;;;;;;;;;;4914391;29;20524;-68
2022/10/23 02:29:16;;;;;;;1.95;1.85;;;;;;;;;;4912563;28;20052;-68
2022/10/23 02:31:44;;;;;;;;;;;;;;;;;;4912342;29;20072;-68
2022/10/23 02:34:09;;;;;;;4.60;1.90;;;;;;;;;;4914244;29;20410;-68
2022/10/23 02:36:35;;;;;;;3.72;1.88;;;;;;;;;;4912867;29;20699;-69
2022/10/23 02:39:03;;;;;;;3.25;1.75;;;;;;;;;;4912500;29;20068;-69
2022/10/23 02:41:40;;;;;;;2.63;1.60;;;;;;;;;;4912174;29;20067;-69
2022/10/23 02:44:44;;;;;;;1.60;1.50;;;;;;;;;;4928331;29;20036;-69
2022/10/23 02:47:20;;;;;;;2.90;1.80;;;;;;;;;;4892738;29;20410;-69
2022/10/23 02:50:25;;;;;;;3.28;1.50;;;;;;;;;;4909097;29;20067;-68
2022/10/23 02:53:12;;;;;;;1.83;1.70;;;;;;;;;;4900316;29;20036;-68
2022/10/23 02:55:37;;;;;;;3.70;1.73;;;;;;;;;;4921755;29;20040;-68
2022/10/23 02:58:19;;;;;;;2.10;1.90;;;;;;;;;;4929179;29;20127;-68
2022/10/23 03:00:54;;;;;;;2.03;1.80;;;;;;;;;;4915154;29;20076;-69
2022/10/23 03:03:28;;;;;;;2.40;1.85;;;;;;;;;;4928697;29;20048;-69
2022/10/23 03:05:54;;;;;;;2.35;2.08;;;;;;;;;;4914158;29;20040;-69
2022/10/23 03:08:20;;;;;;;3.30;1.98;;;;;;;;;;4914835;29;20051;-70
2022/10/23 03:10:46;;;;;;;2.00;1.85;;;;;;;;;;4915602;29;20958;-69
2022/10/23 03:13:11;;;;;;;3.00;1.75;;;;;;;;;;4914900;29;20051;-69
2022/10/23 03:15:42;;;;;;;1.92;1.60;;;;;;;;;;4914739;29;20413;-69
2022/10/23 03:18:11;;;;;;;1.67;1.58;;;;;;;;;;4916263;28;20048;-69
2022/10/23 03:20:37;;;;;;;1.73;1.63;;;;;;;;;;4913246;29;20055;-68
2022/10/23 03:23:03;;;;;;;7.13;1.73;;;;;;;;;;4900360;29;20084;-68
2022/10/23 03:25:29;;;;;;;1.50;1.40;;;;;;;;;;4910494;29;20075;-68
2022/10/23 03:27:56;;;;;;;9.57;1.98;;;;;;;;;;4911937;29;20056;-68
2022/10/23 03:30:22;;;;;;;1.50;1.40;;;;;;;;;;4913007;28;20501;-69
2022/10/23 03:32:52;;;;;;;2.67;1.75;;;;;;;;;;4911789;29;20040;-68
2022/10/23 03:35:18;;;;;;;2.80;1.70;;;;;;;;;;4898213;29;20491;-69
2022/10/23 03:37:44;;;;;;;3.97;1.60;;;;;;;;;;4908052;29;20047;-68
2022/10/23 03:40:10;;;;;;;1.90;1.65;;;;;;;;;;4927395;29;20065;-69
2022/10/23 03:42:35;;;;;;;2.22;1.50;;;;;;;;;;4913350;28;20452;-69
2022/10/23 03:45:01;;;;;;;4.55;1.80;;;;;;;;;;4927310;29;20040;-69
2022/10/23 03:47:26;;;;;;;1.58;1.48;;;;;;;;;;4912425;28;20056;-68
2022/10/23 03:49:52;;;;;;;1.33;1.23;;;;;;;;;;4911097;29;20051;-69
2022/10/23 03:52:17;;;;;;;1.73;1.63;;;;;;;;;;4927677;29;20161;-69
2022/10/23 03:54:43;;;;;;;1.80;1.27;;;;;;;;;;4912967;28;20112;-69
2022/10/23 03:57:09;;;;;;;9.90;1.38;;;;;;;;;;4911424;29;20397;-69
2022/10/23 03:59:35;;;;;;;3.90;1.35;;;;;;;;;;4912367;29;20504;-68
2022/10/23 04:02:03;;;;;;;2.50;1.42;;;;;;;;;;4915499;29;20036;-69
2022/10/23 04:04:28;;;;;;;3.08;1.60;;;;;;;;;;4915894;29;20058;-68
2022/10/23 04:06:54;;;;;;;4.05;1.80;;;;;;;;;;4915056;29;20521;-69
2022/10/23 04:09:20;;;;;;;1.77;1.40;;;;;;;;;;4913391;29;20044;-69
2022/10/23 04:11:45;;;;;;;2.05;1.50;;;;;;;;;;4926463;28;20043;-69
2022/10/23 04:14:12;;;;;;;2.38;1.60;;;;;;;;;;4915108;29;20109;-68
2022/10/23 04:16:38;;;;;;;3.97;1.27;;;;;;;;;;4908697;29;20080;-68
2022/10/23 04:19:04;;;;;;;1.58;1.40;;;;;;;;;;4914963;29;20055;-68
2022/10/23 04:21:30;;;;;;;1.38;1.27;;;;;;;;;;4921487;28;20048;-70
2022/10/23 04:23:55;;;;;;;1.50;1.40;;;;;;;;;;4914977;29;20056;-71
2022/10/23 04:26:21;;;;;;;1.67;1.58;;;;;;;;;;4915277;29;20067;-71
2022/10/23 04:28:47;;;;;;;1.33;1.23;;;;;;;;;;4915068;29;20087;-70
2022/10/23 04:31:12;;;;;;;1.58;1.30;;;;;;;;;;4913609;29;20072;-68
2022/10/23 04:33:40;;;;;;;2.17;1.50;;;;;;;;;;4914893;29;20103;-68
2022/10/23 04:36:06;;;;;;;2.83;1.40;;;;;;;;;;4915124;29;20060;-68
2022/10/23 04:38:31;;;;;;;1.50;1.40;;;;;;;;;;4914990;29;20115;-68
2022/10/23 04:40:57;;;;;;;1.48;1.38;;;;;;;;;;4914197;28;20048;-69
2022/10/23 04:43:24;;;;;;;2.25;1.30;;;;;;;;;;4914146;29;20039;-68
2022/10/23 04:45:49;;;;;;;3.83;1.65;;;;;;;;;;4915975;29;20493;-69
2022/10/23 04:48:15;;;;;;;1.70;1.60;;;;;;;;;;4914868;29;20063;-68
2022/10/23 04:51:01;;;;;;;5.75;1.45;;;;;;;;;;4915316;29;20054;-68
2022/10/23 04:53:45;;;;;;;1.73;1.45;;;;;;;;;;4915209;28;20135;-68
2022/10/23 04:56:49;;;;;;;1.60;1.50;;;;;;;;;;4915206;29;20048;-68
2022/10/23 04:59:17;;;;;;;1.58;1.38;;;;;;;;;;4930125;28;20075;-69
2022/10/23 05:01:43;;;;;;;1.75;1.23;;;;;;;;;;4930227;29;20131;-69
2022/10/23 05:04:09;;;;;;;2.08;1.45;;;;;;;;;;4915177;29;20123;-69
2022/10/23 05:06:55;;;;;;;1.42;1.33;;;;;;;;;;4913714;29;20044;-68
2022/10/23 05:09:34;;;;;;;2.90;1.38;;;;;;;;;;4914525;29;20205;-68
2022/10/23 05:12:20;;;;;;;1.30;1.20;;;;;;;;;;4914787;28;20048;-68
2022/10/23 05:14:46;;;;;;;1.67;1.45;;;;;;;;;;4913622;29;20408;-68
2022/10/23 05:17:19;;;;;;;3.10;1.60;;;;;;;;;;4920514;28;20055;-68
2022/10/23 05:19:52;;;;;;;5.32;1.60;;;;;;;;;;4915731;29;20556;-68
2022/10/23 05:22:22;;;;;;;1.30;1.20;;;;;;;;;;4914246;29;20078;-68
2022/10/23 05:24:53;;;;;;;3.65;1.20;;;;;;;;;;4915596;28;20063;-72
2022/10/23 05:27:22;;;;;;;2.70;1.23;;;;;;;;;;4929199;29;20072;-68
2022/10/23 05:29:50;;;;;;;2.38;1.10;;;;;;;;;;4915222;28;20058;-68
2022/10/23 05:32:19;;;;;;;4.40;1.50;;;;;;;;;;4911741;29;20529;-68
2022/10/23 05:34:44;;;;;;;1.33;0.90;;;;;;;;;;4910862;29;20040;-68
2022/10/23 05:37:13;;;;;;;2.95;1.10;;;;;;;;;;4912573;29;20059;-68
2022/10/23 05:39:39;;;;;;;1.10;1.00;;;;;;;;;;4913821;29;20040;-68
2022/10/23 05:42:09;;;;;;;2.17;1.42;;;;;;;;;;4913774;29;20130;-68
2022/10/23 05:44:36;;;;;;;1.48;1.10;;;;;;;;;;4913969;29;20584;-68
2022/10/23 05:47:16;;;;;;;1.52;1.42;;;;;;;;;;4913783;28;20060;-68
2022/10/23 05:49:51;;;;;;;2.45;1.15;;;;;;;;;;4914829;29;20040;-68
2022/10/23 05:52:45;;;;;;;1.00;1.00;;;;;;;;;;4899454;29;20052;-67
2022/10/23 05:55:28;;;;;;;0.88;0.85;;;;;;;;;;4928314;29;20048;-71
2022/10/23 05:57:53;;;;;;;1.33;1.17;;;;;;;;;;4915089;29;20850;-69
2022/10/23 06:00:31;;;;;;;1.75;1.20;;;;;;;;;;4924430;28;20109;-71
2022/10/23 06:03:15;;;;;;;3.45;1.05;;;;;;;;;;4912870;29;20091;-70
2022/10/23 06:05:48;;;;;;;1.58;1.15;;;;;;;;;;4907919;29;20152;-70
2022/10/23 06:08:18;;;;;;;1.92;1.15;;;;;;;;;;4902069;29;20051;-70
2022/10/23 06:10:46;;;;;;;1.00;1.00;;;;;;;;;;4888064;29;20041;-70
2022/10/23 06:13:12;;;;;;;1.45;1.30;;;;;;;;;;4904672;29;20048;-70
2022/10/23 06:15:37;;;;;;;1.05;1.00;;;;;;;;;;4906770;29;20071;-70
2022/10/23 06:18:14;;;;;;;4.72;1.20;;;;;;;;;;4904431;29;20048;-70
2022/10/23 06:20:51;;;;;;;1.30;1.20;;;;;;;;;;4902841;29;20036;-72
2022/10/23 06:23:23;;;;;;;;;;;;;;;;;;4893211;29;20442;-69
2022/10/23 06:26:10;;;;;;;1.02;0.93;;;;;;;;;;4903220;29;19979;-72
2022/10/23 06:28:50;;;;;;;1.13;1.05;;;;;;;;;;4925907;28;20108;-71
2022/10/23 06:31:18;;;;;;;1.20;1.10;;;;;;;;;;4906796;29;20048;-69
2022/10/23 06:33:44;;;;;;;3.88;1.33;;;;;;;;;;4908868;29;20143;-69
2022/10/23 06:36:10;;;;;;;4.45;1.25;;;;;;;;;;4910477;29;20560;-69
2022/10/23 06:38:39;;;;;;;1.13;1.02;;;;;;;;;;4925062;28;20055;-69
2022/10/23 06:41:07;;;;;;;2.60;1.00;;;;;;;;;;4902431;29;20046;-69
2022/10/23 06:43:36;;;;;;;1.10;1.00;;;;;;;;;;4906711;29;20058;-69
2022/10/23 06:46:11;;;;;;;1.20;1.10;;;;;;;;;;4910360;28;20386;-69
2022/10/23 06:49:15;;;;;;;1.40;1.13;;;;;;;;;;4928086;29;20064;-70
2022/10/23 06:51:45;;;;;;;1.40;1.30;;;;;;;;;;4914257;29;20054;-70
2022/10/23 06:54:12;;;;;;;1.20;1.10;;;;;;;;;;4905233;29;20560;-69
2022/10/23 06:56:47;;;;;;;3.03;1.10;;;;;;;;;;4913888;29;20056;-70
2022/10/23 06:59:16;;;;;;;2.97;1.25;;;;;;;;;;4927717;28;20564;-70
2022/10/23 07:01:41;;;;;;;1.80;1.30;;;;;;;;;;4912763;29;20119;-70
2022/10/23 07:04:09;;;;;;;2.20;1.50;;;;;;;;;;4907076;29;20501;-70
2022/10/23 07:06:34;;;;;;;1.40;1.30;;;;;;;;;;4925513;29;20051;-70
2022/10/23 07:09:00;;;;;;;6.03;1.42;;;;;;;;;;4925306;28;20059;-70
2022/10/23 07:11:46;;;;;;;4.00;1.10;;;;;;;;;;4907789;29;20051;-70
2022/10/23 07:14:12;;;;;;;1.30;1.20;;;;;;;;;;4894531;29;20048;-70
2022/10/23 07:16:38;;;;;;;1.38;1.17;;;;;;;;;;4907611;28;20040;-70
2022/10/23 07:19:05;;;;;;;0.88;0.82;;;;;;;;;;4909605;29;20069;-70
2022/10/23 07:21:51;;;;;;;1.05;0.95;;;;;;;;;;4906407;28;20051;-70
2022/10/23 07:24:40;;;;;;;1.65;1.23;;;;;;;;;;4904541;29;20048;-70
2022/10/23 07:27:19;;;;;;;3.53;0.95;;;;;;;;;;4899836;29;20052;-69
2022/10/23 07:29:52;;;;;;;1.38;1.27;;;;;;;;;;4902604;28;20512;-69
2022/10/23 07:32:18;;;;;;;2.65;1.13;;;;;;;;;;4915871;29;20044;-70
2022/10/23 07:35:02;;;;;;;1.48;1.38;;;;;;;;;;4901198;28;20064;-70
2022/10/23 07:37:31;;;;;;;1.25;1.15;;;;;;;;;;4900115;29;20048;-70
2022/10/23 07:39:59;;;;;;;1.55;1.10;;;;;;;;;;4915894;29;20047;-70
2022/10/23 07:42:25;;;;;;;2.53;0.95;;;;;;;;;;4901701;29;20056;-70
2022/10/23 07:44:51;;;;;;;1.23;1.10;;;;;;;;;;4900758;29;20036;-70
2022/10/23 07:47:16;;;;;;;1.58;0.90;;;;;;;;;;4900321;29;20048;-70
2022/10/23 07:49:47;;;;;;;0.88;0.85;;;;;;;;;;4915648;29;20055;-70
2022/10/23 07:52:13;;;;;;;0.90;0.85;;;;;;;;;;4901027;29;20075;-69
2022/10/23 07:55:10;;;;;;;2.97;1.05;;;;;;;;;;4900628;29;20048;-70
2022/10/23 07:57:42;;;;;;;1.17;1.00;;;;;;;;;;4900695;29;20063;-69
2022/10/23 08:00:25;;;;;;;3.63;0.90;;;;;;;;;;4899891;29;20047;-69
2022/10/23 08:02:58;;;;;;;0.70;0.70;;;;;;;;;;4900222;28;20063;-70
2022/10/23 08:05:24;;;;;;;0.90;0.90;;;;;;;;;;4902269;29;20394;-69
2022/10/23 08:07:57;;;;;;;1.42;1.00;;;;;;;;;;4917781;29;20139;-69
2022/10/23 08:10:23;;;;;;;1.48;0.80;;;;;;;;;;4902147;29;20076;-69
2022/10/23 08:12:49;;;;;;;0.85;0.85;;;;;;;;;;4901949;29;20119;-69
2022/10/23 08:15:18;;;;;;;1.65;0.80;;;;;;;;;;4901670;29;20074;-70
2022/10/23 08:17:51;;;;;;;1.38;1.08;;;;;;;;;;4902676;29;20576;-70
2022/10/23 08:20:40;;;;;;;1.20;0.93;;;;;;;;;;4916861;29;20055;-70
2022/10/23 08:23:06;;;;;;;0.93;0.85;;;;;;;;;;4901616;28;20048;-69
2022/10/23 08:25:32;;;;;;;1.60;1.20;;;;;;;;;;4901692;29;20552;-70
2022/10/23 08:27:58;;;;;;;2.40;0.80;;;;;;;;;;4901904;29;20161;-70
2022/10/23 08:30:24;;;;;;;2.58;0.90;;;;;;;;;;4901433;29;20151;-70
2022/10/23 08:32:49;;;;;;;0.88;0.88;;;;;;;;;;4901796;29;20110;-69
2022/10/23 08:35:15;;;;;;;0.90;0.80;;;;;;;;;;4901233;28;20060;-70
2022/10/23 08:37:41;;;;;;;1.10;1.10;;;;;;;;;;4901543;29;20055;-70
2022/10/23 08:40:14;;;;;;;1.23;0.80;;;;;;;;;;4901869;29;20051;-69
2022/10/23 08:43:10;;;;;;;1.42;0.95;;;;;;;;;;4901074;29;20526;-70
2022/10/23 08:45:57;;;;;;;1.17;0.90;;;;;;;;;;4916800;28;20048;-69
2022/10/23 08:48:48;;;;;;;3.17;0.80;;;;;;;;;;4906347;29;20104;-70
2022/10/23 08:51:45;;;;;;;2.28;0.82;;;;;;;;;;4920362;29;20059;-69
2022/10/23 08:54:13;;;;;;;0.60;0.60;;;;;;;;;;4908768;29;20076;-69
2022/10/23 08:56:41;;;;;;;0.75;0.75;;;;;;;;;;4908749;28;20051;-69
2022/10/23 08:59:21;;;;;;;0.65;0.65;;;;;;;;;;4907356;29;20139;-69
2022/10/23 09:01:54;;;;;;;2.08;0.65;;;;;;;;;;4909580;28;20067;-69
2022/10/23 09:04:20;;;;;;;2.45;0.70;;;;;;;;;;4909718;29;20119;-69
2022/10/23 09:07:04;;;;;;;0.68;0.68;;;;;;;;;;4908355;29;20493;-69
2022/10/23 09:09:29;;;;;;;0.60;0.60;;;;;;;;;;4918126;29;20055;-70
2022/10/23 09:12:14;;;;;;;1.50;0.90;;;;;;;;;;4906634;29;20048;-69
2022/10/23 09:14:42;;;;;;;1.10;1.00;;;;;;;;;;4907114;28;20052;-69
2022/10/23 09:17:28;;;;;;;2.58;0.80;;;;;;;;;;4907040;29;20044;-69
2022/10/23 09:19:59;;;;;;;1.17;0.90;;;;;;;;;;4906478;28;20067;-69
2022/10/23 09:22:26;;;;;;;1.13;0.50;;;;;;;;;;4908584;29;20130;-69
2022/10/23 09:24:51;;;;;;;3.85;0.70;;;;;;;;;;4910894;29;20151;-69
2022/10/23 09:27:19;;;;;;;1.15;1.05;;;;;;;;;;4910763;28;20680;-69
2022/10/23 09:29:50;;;;;;;4.22;0.80;;;;;;;;;;4910763;29;20032;-69
2022/10/23 09:32:16;;;;;;;0.90;0.75;;;;;;;;;;4912728;28;20068;-69
2022/10/23 09:34:53;;;;;;;0.75;0.70;;;;;;;;;;4911435;29;20052;-69
2022/10/23 09:37:30;;;;;;;1.05;0.73;;;;;;;;;;4911814;28;20067;-69
2022/10/23 09:40:32;;;;;;;0.80;0.80;;;;;;;;;;4912206;29;20489;-69
2022/10/23 09:43:11;;;;;;;1.25;1.05;;;;;;;;;;4914639;28;20119;-69
2022/10/23 09:45:40;;;;;;;0.85;0.77;;;;;;;;;;4910894;29;20059;-69
2022/10/23 09:48:18;;;;;;;0.75;0.75;;;;;;;;;;4910728;29;20048;-70
2022/10/23 09:51:01;;;;;;;5.75;0.90;;;;;;;;;;4909534;28;20504;-69
2022/10/23 09:53:38;;;;;;;3.22;0.82;;;;;;;;;;4925241;29;20052;-69
2022/10/23 09:56:12;;;;;;;4.22;0.90;;;;;;;;;;4911744;28;20056;-69
2022/10/23 09:58:51;;;;;;;1.73;1.00;;;;;;;;;;4911057;29;20135;-69
2022/10/23 10:01:26;;;;;;;1.58;0.70;;;;;;;;;;4909619;28;20079;-69
2022/10/23 10:03:56;;;;;;;0.90;0.82;;;;;;;;;;4924020;29;20103;-69
2022/10/23 10:06:29;;;;;;;2.47;0.77;;;;;;;;;;4908440;29;20036;-69
2022/10/23 10:09:06;;;;;;;1.70;1.10;;;;;;;;;;4921634;28;20151;-69
2022/10/23 10:11:35;;;;;;;2.83;1.00;;;;;;;;;;4905713;29;20103;-69
2022/10/23 10:14:03;;;;;;;0.68;0.68;;;;;;;;;;4905419;28;20111;-69
2022/10/23 10:16:43;;;;;;;0.82;0.70;;;;;;;;;;4905561;29;20052;-69
2022/10/23 10:19:35;;;;;;;0.70;0.70;;;;;;;;;;4906347;28;20103;-69
2022/10/23 10:22:25;;;;;;;;;;;;;;;;;;4906001;29;20044;-69
2022/10/23 10:25:08;;;;;;;0.88;0.70;;;;;;;;;;4910152;29;20786;-69
2022/10/23 10:27:55;;;;;;;0.93;0.70;;;;;;;;;;4907000;29;20104;-70
2022/10/23 10:30:23;;;;;;;0.82;0.77;;;;;;;;;;4910960;29;20130;-70
2022/10/23 10:33:06;;;;;;;3.92;0.75;;;;;;;;;;4908635;28;20442;-70
2022/10/23 10:35:56;;;;;;;1.13;0.82;;;;;;;;;;4863581;29;20539;-69
2022/10/23 10:38:43;;;;;;;2.63;0.85;;;;;;;;;;4908694;28;20887;-69
2022/10/23 10:41:27;;;;;;;0.90;0.80;;;;;;;;;;4907879;29;20044;-70
2022/10/23 10:44:04;;;;;;;0.82;0.77;;;;;;;;;;4909890;28;20056;-69
2022/10/23 10:46:33;;;;;;;0.88;0.80;;;;;;;;;;4909843;29;20044;-69
2022/10/23 10:49:06;;;;;;;1.20;0.70;;;;;;;;;;4909651;28;20070;-72
2022/10/23 10:51:43;;;;;;;4.00;0.80;;;;;;;;;;4908960;29;20044;-70
2022/10/23 10:54:29;;;;;;;0.68;0.68;;;;;;;;;;4910795;29;20050;-70
2022/10/23 10:56:59;;;;;;;1.02;0.60;;;;;;;;;;4907926;28;20490;-70
2022/10/23 10:59:31;;;;;;;2.40;0.75;;;;;;;;;;4910864;29;20108;-70
2022/10/23 11:02:26;;;;;;;1.35;0.60;;;;;;;;;;4907207;28;20528;-70
2022/10/23 11:05:10;;;;;;;1.67;0.70;;;;;;;;;;4908167;29;20413;-70
2022/10/23 11:07:41;;;;;;;5.82;0.70;;;;;;;;;;4921961;29;20052;-70
2022/10/23 11:10:16;;;;;;;0.70;0.60;;;;;;;;;;4911201;29;20123;-70
2022/10/23 11:12:44;;;;;;;1.67;0.70;;;;;;;;;;4909953;28;20040;-70
2022/10/23 11:15:16;;;;;;;1.15;0.80;;;;;;;;;;4909910;29;20043;-70
2022/10/23 11:17:47;;;;;;;0.50;0.50;;;;;;;;;;4910920;28;20044;-70
2022/10/23 11:20:53;;;;;;;0.73;0.73;;;;;;;;;;4910080;29;20063;-70
2022/10/23 11:23:46;;;;;;;2.83;0.60;;;;;;;;;;4906706;28;20665;-70
2022/10/23 11:26:14;;;;;;;2.08;0.60;;;;;;;;;;4907054;29;20056;-69
2022/10/23 11:28:55;;;;;;;1.63;0.60;;;;;;;;;;4899696;29;20084;-69
2022/10/23 11:31:52;;;;;;;0.60;0.60;;;;;;;;;;4898921;29;20059;-67
2022/10/23 11:34:59;;;;;;;0.55;0.55;;;;;;;;;;4903109;29;20056;-67
2022/10/23 11:37:25;;;;;;;4.20;0.80;;;;;;;;;;4903687;29;20120;-67
2022/10/23 11:40:06;;;;;;;1.33;0.70;;;;;;;;;;4903602;29;20062;-68
2022/10/23 11:42:32;;;;;;;1.52;0.65;;;;;;;;;;4903408;28;20055;-68
2022/10/23 11:44:58;;;;;;;3.22;0.65;;;;;;;;;;4903069;29;20051;-68
2022/10/23 11:47:26;;;;;;;1.30;0.60;;;;;;;;;;4903921;28;20048;-68
2022/10/23 11:50:06;;;;;;;0.57;0.55;;;;;;;;;;4915567;29;20048;-71
2022/10/23 11:52:33;;;;;;;1.20;0.70;;;;;;;;;;4902166;29;20052;-68
2022/10/23 11:55:23;;;;;;;4.22;0.70;;;;;;;;;;4901882;28;20453;-68
2022/10/23 11:58:07;;;;;;;3.03;0.70;;;;;;;;;;4899186;29;20864;-67
2022/10/23 12:00:38;;;;;;;0.98;0.52;;;;;;;;;;4901638;29;20055;-68
2022/10/23 12:03:13;;;;;;;1.40;0.60;;;;;;;;;;4901697;28;20075;-68
2022/10/23 12:05:41;;;;;;;3.92;0.60;;;;;;;;;;4901699;29;20076;-67
2022/10/23 12:08:38;;;;;;;3.78;0.73;;;;;;;;;;4902159;29;20563;-68
2022/10/23 12:11:04;;;;;;;3.25;0.80;;;;;;;;;;4893508;29;20534;-68
2022/10/23 12:13:35;;;;;;;1.10;0.50;;;;;;;;;;4901240;29;20044;-69
2022/10/23 12:16:01;;;;;;;;;;;;;;;;;;4915559;29;20075;-67
2022/10/23 12:18:27;;;;;;;5.45;0.60;;;;;;;;;;4902310;29;20300;-68
2022/10/23 12:20:56;;;;;;;2.17;0.60;;;;;;;;;;4901886;29;20051;-67
2022/10/23 12:23:31;;;;;;;2.30;0.50;;;;;;;;;;4903302;29;20139;-68
2022/10/23 12:26:13;;;;;;;1.10;0.60;;;;;;;;;;4919966;28;20048;-69
2022/10/23 12:29:17;;;;;;;1.60;0.65;;;;;;;;;;4902208;29;20063;-68
2022/10/23 12:31:50;;;;;;;0.50;0.50;;;;;;;;;;4893747;29;20486;-68
2022/10/23 12:35:11;;;;;;;4.43;0.60;;;;;;;;;;4904770;28;20142;-68
2022/10/23 12:38:11;;;;;;;0.47;0.47;;;;;;;;;;4883880;29;20101;-68
2022/10/23 12:40:37;;;;;;;0.75;0.60;;;;;;;;;;4886634;29;20182;-68
2022/10/23 12:43:02;;;;;;;1.33;0.55;;;;;;;;;;4903297;29;20172;-68
2022/10/23 12:45:37;;;;;;;3.53;0.60;;;;;;;;;;4905386;29;20366;-68
2022/10/23 12:48:03;;;;;;;1.23;0.40;;;;;;;;;;4902827;29;20048;-67
2022/10/23 12:50:33;;;;;;;2.10;0.52;;;;;;;;;;4904552;29;20051;-68
2022/10/23 12:53:06;;;;;;;0.50;0.50;;;;;;;;;;4904176;28;20048;-67
2022/10/23 12:56:02;;;;;;;1.70;0.45;;;;;;;;;;4903533;29;20043;-67
2022/10/23 12:58:30;;;;;;;0.70;0.60;;;;;;;;;;4902076;28;20095;-67
2022/10/23 13:01:00;;;;;;;;;;;;;;;;;;4918571;28;20040;-67
2022/10/23 13:03:28;;;;;;;0.52;0.52;;;;;;;;;;4904035;28;19942;-67
2022/10/23 13:06:01;;;;;;;0.90;0.60;;;;;;;;;;4917140;29;20576;-68
2022/10/23 13:08:40;;;;;;;2.97;0.55;;;;;;;;;;4902029;29;20052;-67
2022/10/23 13:11:35;;;;;;;0.50;0.50;;;;;;;;;;4915692;29;20048;-67
2022/10/23 13:14:12;;;;;;;2.40;0.52;;;;;;;;;;4902653;29;20051;-68
2022/10/23 13:16:37;;;;;;;1.63;0.50;;;;;;;;;;4905868;28;20535;-67
2022/10/23 13:19:03;;;;;;;0.57;0.52;;;;;;;;;;4904897;29;20119;-67
2022/10/23 13:21:28;;;;;;;0.50;0.50;;;;;;;;;;4905661;28;20116;-67
2022/10/23 13:23:54;;;;;;;0.70;0.70;;;;;;;;;;4905896;29;20157;-68
2022/10/23 13:26:43;;;;;;;1.58;0.93;;;;;;;;;;4906228;29;20044;-67
2022/10/23 13:29:20;;;;;;;0.47;0.47;;;;;;;;;;4904859;28;20054;-67
2022/10/23 13:31:45;;;;;;;0.77;0.52;;;;;;;;;;4905148;29;20465;-67
2022/10/23 13:34:22;;;;;;;0.50;0.50;;;;;;;;;;4905694;28;20177;-67
2022/10/23 13:37:21;;;;;;;1.80;0.77;;;;;;;;;;4920605;29;20207;-67
2022/10/23 13:40:01;;;;;;;2.03;0.70;;;;;;;;;;4912592;29;20074;-67
2022/10/23 13:42:27;;;;;;;1.17;0.63;;;;;;;;;;4905099;29;20044;-67
2022/10/23 13:44:53;;;;;;;0.80;0.57;;;;;;;;;;4906053;28;20048;-67
2022/10/23 13:47:18;;;;;;;0.93;0.70;;;;;;;;;;4905602;29;20116;-68
2022/10/23 13:49:44;;;;;;;1.00;0.70;;;;;;;;;;4905723;28;20052;-69
2022/10/23 13:52:18;;;;;;;3.05;0.80;;;;;;;;;;4904782;29;20584;-67
2022/10/23 13:54:44;;;;;;;3.45;0.70;;;;;;;;;;4905526;29;20044;-67
2022/10/23 13:57:12;;;;;;;2.70;0.60;;;;;;;;;;4905274;29;20342;-67
2022/10/23 13:59:38;;;;;;;4.35;0.70;;;;;;;;;;4905939;28;20047;-67
2022/10/23 14:02:19;;;;;;;3.38;0.82;;;;;;;;;;4904777;29;20048;-67
2022/10/23 14:04:46;;;;;;;1.83;0.60;;;;;;;;;;4903266;29;20044;-69
2022/10/23 14:07:12;;;;;;;1.30;0.73;;;;;;;;;;4903451;28;20409;-67
2022/10/23 14:09:37;;;;;;;1.52;0.75;;;;;;;;;;4904662;29;20539;-67
2022/10/23 14:12:03;;;;;;;3.15;0.80;;;;;;;;;;4903670;28;20058;-68
2022/10/23 14:14:29;;;;;;;2.08;0.70;;;;;;;;;;4903532;29;20119;-67
2022/10/23 14:16:55;;;;;;;1.80;0.52;;;;;;;;;;4904591;29;20453;-67
2022/10/23 14:19:20;;;;;;;1.88;0.63;;;;;;;;;;4903888;28;20044;-67
2022/10/23 14:21:46;;;;;;;4.47;1.23;;;;;;;;;;4904091;29;20048;-67
2022/10/23 14:24:13;;;;;;;2.20;0.82;;;;;;;;;;4901750;29;20088;-67
2022/10/23 14:26:39;;;;;;;1.80;0.70;;;;;;;;;;4904021;29;20055;-67
2022/10/23 14:29:04;;;;;;;1.48;0.88;;;;;;;;;;4904116;28;20048;-67
2022/10/23 14:31:30;;;;;;;7.68;0.70;;;;;;;;;;4904145;29;20038;-67
2022/10/23 14:33:59;;;;;;;3.25;0.93;;;;;;;;;;4919239;29;20052;-68
2022/10/23 14:36:25;;;;;;;0.90;0.60;;;;;;;;;;4903742;28;20172;-68
2022/10/23 14:38:58;;;;;;;1.05;0.95;;;;;;;;;;4904969;29;20047;-67
2022/10/23 14:41:25;;;;;;;0.80;0.80;;;;;;;;;;4904819;28;20051;-68
2022/10/23 14:43:50;;;;;;;3.58;0.90;;;;;;;;;;4903607;29;20048;-68
2022/10/23 14:46:22;;;;;;;2.70;1.02;;;;;;;;;;4904078;29;20058;-68
2022/10/23 14:48:47;;;;;;;1.15;1.00;;;;;;;;;;4904594;28;20056;-67
2022/10/23 14:51:22;;;;;;;6.80;1.50;;;;;;;;;;4904429;29;20055;-68
2022/10/23 14:53:48;;;;;;;8.38;1.75;;;;;;;;;;4905396;28;20412;-67
2022/10/23 14:56:16;;;;;;;1.63;1.50;;;;;;;;;;4904980;29;20052;-67
2022/10/23 14:58:42;;;;;;;5.97;1.65;;;;;;;;;;4904764;29;20048;-67
2022/10/23 15:01:09;;;;;;;5.22;2.95;;;;;;;;;;4903689;28;20104;-67
2022/10/23 15:03:34;;;;;;;6.30;3.20;;;;;;;;;;4904891;29;20095;-67
2022/10/23 15:06:00;;;;;;;6.25;1.95;;;;;;;;;;4905231;28;20048;-67
2022/10/23 15:08:25;;;;;;;1.95;1.50;;;;;;;;;;4903443;29;20412;-67
2022/10/23 15:10:51;;;;;;;2.00;1.25;;;;;;;;;;4904490;29;20673;-67
2022/10/23 15:13:16;;;;;;;4.72;1.35;;;;;;;;;;4904599;28;20604;-67
2022/10/23 15:15:43;;;;;;;5.40;1.42;;;;;;;;;;4903497;29;20470;-67
2022/10/23 15:18:08;;;;;;;2.60;1.88;;;;;;;;;;4917919;28;20044;-67
2022/10/23 15:20:34;;;;;;;1.45;1.17;;;;;;;;;;4917424;29;20456;-67